createdAt,value
2019-05-22T00:00:28.516Z,154024.77
2019-05-22T00:02:58.826Z,154006.28
2019-05-22T00:05:32.239Z,153974.61
2019-05-22T00:10:54.105Z,153958.75
2019-05-22T00:13:25.750Z,153954.81
2019-05-22T00:15:57.282Z,153911.28
2019-05-22T00:18:26.280Z,153905.98
2019-05-22T00:20:55.891Z,153896.75
2019-05-22T00:23:26.493Z,153876.95
2019-05-22T00:25:55.287Z,153867.77
2019-05-22T00:28:25.663Z,153871.70
2019-05-22T00:30:55.768Z,153859.83
2019-05-22T00:33:26.282Z,153855.80
2019-05-22T00:35:56.707Z,153840.00
2019-05-22T00:38:25.389Z,153834.69
2019-05-22T00:40:55.572Z,153832.06
2019-05-22T00:43:34.760Z,153822.83
2019-05-22T00:46:09.531Z,153800.41
2019-05-22T00:48:41.713Z,153808.34
2019-05-22T00:51:29.179Z,153793.81
2019-05-22T00:54:03.024Z,153793.81
2019-05-22T00:56:33.208Z,153795.17
2019-05-22T00:59:06.228Z,153813.59
2019-05-22T01:01:38.946Z,153797.78
2019-05-22T01:04:09.387Z,153784.62
2019-05-22T01:06:38.577Z,153784.62
2019-05-22T01:09:10.281Z,153767.45
2019-05-22T01:11:39.772Z,153774.06
2019-05-22T01:14:09.624Z,153752.92
2019-05-22T01:16:39.784Z,153742.38
2019-05-22T01:19:09.492Z,153718.66
2019-05-22T01:21:38.377Z,153725.27
2019-05-22T01:24:07.828Z,153743.73
2019-05-22T01:26:36.920Z,153733.19
2019-05-22T01:29:06.224Z,153733.19
2019-05-22T01:31:37.572Z,153727.87
2019-05-22T01:34:09.687Z,153729.19
2019-05-22T01:36:49.505Z,153700.19
2019-05-22T01:39:37.932Z,153689.62
2019-05-22T01:42:11.439Z,153689.62
2019-05-22T01:44:40.818Z,153650.13
2019-05-22T01:47:13.477Z,153655.38
2019-05-22T01:49:46.954Z,153658.00
2019-05-22T01:52:17.073Z,153663.30
2019-05-22T01:54:46.771Z,153665.92
2019-05-22T01:57:16.039Z,153650.13
2019-05-22T01:59:45.299Z,153655.38
2019-05-22T02:02:14.446Z,153631.66
2019-05-22T02:04:43.024Z,153632.97
2019-05-22T02:07:11.893Z,153621.12
2019-05-22T02:09:42.203Z,153610.56
2019-05-22T02:12:17.578Z,153644.83
2019-05-22T02:14:50.572Z,153646.14
2019-05-22T02:17:22.520Z,153658.00
2019-05-22T02:19:51.330Z,153636.91
2019-05-22T02:22:20.168Z,153598.72
2019-05-22T02:24:51.626Z,153600.03
2019-05-22T02:27:21.382Z,153602.66
2019-05-22T02:29:52.270Z,153565.67
2019-05-22T02:32:21.253Z,153586.86
2019-05-22T02:34:50.339Z,153581.56
2019-05-22T02:37:20.855Z,153581.56
2019-05-22T02:39:50.440Z,153574.91
2019-05-22T02:42:49.400Z,153573.59
2019-05-22T02:45:18.585Z,153574.91
2019-05-22T02:47:49.169Z,153572.28
2019-05-22T02:50:18.659Z,153553.81
2019-05-22T02:52:48.101Z,153557.80
2019-05-22T02:55:17.724Z,153563.05
2019-05-22T02:57:46.628Z,153570.97
2019-05-22T03:00:16.941Z,153560.42
2019-05-22T03:02:54.310Z,153568.34
2019-05-22T03:05:24.941Z,153548.58
2019-05-22T03:07:54.721Z,153536.72
2019-05-22T03:10:24.982Z,153535.41
2019-05-22T03:12:53.797Z,153515.64
2019-05-22T03:15:24.528Z,153519.56
2019-05-22T03:18:02.387Z,153534.05
2019-05-22T03:20:33.346Z,153526.19
2019-05-22T03:23:35.236Z,153531.42
2019-05-22T03:26:05.561Z,153534.05
2019-05-22T03:28:34.996Z,153524.87
2019-05-22T03:31:05.494Z,153539.34
2019-05-22T03:33:34.621Z,153544.59
2019-05-22T03:36:12.569Z,153534.05
2019-05-22T03:38:41.979Z,153531.42
2019-05-22T03:41:12.993Z,153505.09
2019-05-22T03:43:45.131Z,153515.64
2019-05-22T03:46:31.906Z,153478.72
2019-05-22T03:49:01.176Z,153478.72
2019-05-22T03:51:30.516Z,153485.33
2019-05-22T03:53:59.175Z,153468.19
2019-05-22T03:56:28.397Z,153441.86
2019-05-22T03:58:57.377Z,153440.50
2019-05-22T04:01:26.345Z,153439.19
2019-05-22T04:03:55.609Z,153428.66
2019-05-22T04:06:25.276Z,153420.78
2019-05-22T04:08:54.314Z,153397.03
2019-05-22T04:11:24.692Z,153397.03
2019-05-22T04:13:53.655Z,153378.59
2019-05-22T04:16:26.940Z,153377.28
2019-05-22T04:18:57.879Z,153378.59
2019-05-22T04:21:27.015Z,153362.81
2019-05-22T04:23:55.620Z,153349.66
2019-05-22T04:26:24.578Z,153346.97
2019-05-22T04:28:55.918Z,153294.31
2019-05-22T04:31:30.349Z,153310.13
2019-05-22T04:33:59.769Z,153283.77
2019-05-22T04:36:29.288Z,153304.84
2019-05-22T04:39:00.763Z,153270.56
2019-05-22T04:41:30.534Z,153238.97
2019-05-22T04:43:59.562Z,153254.80
2019-05-22T04:46:28.095Z,153278.48
2019-05-22T04:48:57.693Z,153278.48
2019-05-22T04:51:29.091Z,153270.56
2019-05-22T04:53:58.294Z,153231.06
2019-05-22T04:56:27.898Z,153215.28
2019-05-22T04:58:57.487Z,153248.19
2019-05-22T05:01:26.603Z,153244.22
2019-05-22T05:03:55.301Z,153225.81
2019-05-22T05:06:26.005Z,153228.44
2019-05-22T05:08:55.223Z,153225.81
2019-05-22T05:11:24.585Z,153220.53
2019-05-22T05:13:53.453Z,153194.22
2019-05-22T05:16:22.223Z,153200.78
2019-05-22T05:18:50.803Z,153178.41
2019-05-22T05:21:19.613Z,153178.41
2019-05-22T05:23:48.398Z,153182.37
2019-05-22T05:26:17.134Z,153183.69
2019-05-22T05:28:46.396Z,153198.16
2019-05-22T05:31:15.321Z,153202.09
2019-05-22T05:33:56.104Z,153195.53
2019-05-22T05:36:24.897Z,153159.97
2019-05-22T05:38:54.761Z,153169.19
2019-05-22T05:41:23.340Z,153154.72
2019-05-22T05:43:52.258Z,153156.03
2019-05-22T05:46:21.166Z,153181.03
2019-05-22T05:48:50.488Z,153178.41
2019-05-22T05:51:22.191Z,153165.25
2019-05-22T05:54:06.107Z,153167.88
2019-05-22T05:56:37.556Z,153162.63
2019-05-22T05:59:07.642Z,153174.47
2019-05-22T06:01:41.098Z,153149.44
2019-05-22T06:04:10.135Z,153175.78
2019-05-22T06:06:44.384Z,153157.34
2019-05-22T06:09:21.313Z,153133.66
2019-05-22T06:11:55.099Z,153138.91
2019-05-22T06:14:30.135Z,153124.45
2019-05-22T06:17:24.746Z,153120.52
2019-05-22T06:19:59.910Z,153103.39
2019-05-22T06:22:29.164Z,153103.39
2019-05-22T06:25:03.950Z,153095.48
2019-05-22T06:27:44.505Z,153109.98
2019-05-22T06:30:20.202Z,153107.31
2019-05-22T06:33:11.297Z,153098.11
2019-05-22T06:35:42.484Z,153056.00
2019-05-22T06:38:47.302Z,153087.58
2019-05-22T06:41:17.255Z,153088.94
2019-05-22T06:43:48.856Z,153088.94
2019-05-22T06:46:37.076Z,153062.59
2019-05-22T06:49:09.071Z,153062.59
2019-05-22T06:51:37.596Z,153062.59
2019-05-22T06:54:06.156Z,153075.73
2019-05-22T06:56:34.698Z,153075.73
2019-05-22T06:59:03.282Z,153067.83
2019-05-22T07:01:32.915Z,153059.97
2019-05-22T07:04:01.604Z,153075.73
2019-05-22T07:06:30.147Z,153078.36
2019-05-22T07:08:59.527Z,153086.27
2019-05-22T07:11:28.087Z,153077.05
2019-05-22T07:13:59.293Z,153079.72
2019-05-22T07:16:28.202Z,153081.03
2019-05-22T07:18:57.545Z,153078.36
2019-05-22T07:21:34.036Z,153081.03
2019-05-22T07:23:57.586Z,153073.13
2019-05-22T07:26:26.528Z,153070.50
2019-05-22T07:28:55.547Z,153058.66
2019-05-22T07:31:24.144Z,153069.19
2019-05-22T07:33:52.995Z,153057.31
2019-05-22T07:36:22.743Z,153048.14
2019-05-22T07:38:51.517Z,153025.73
2019-05-22T07:41:20.821Z,153037.63
2019-05-22T07:43:49.495Z,153036.25
2019-05-22T07:46:18.099Z,153036.25
2019-05-22T07:48:47.042Z,153049.45
2019-05-22T07:51:17.577Z,153083.64
2019-05-22T07:53:47.089Z,153125.75
2019-05-22T07:56:16.980Z,153059.97
2019-05-22T07:58:46.144Z,153041.55
2019-05-22T08:01:16.109Z,153048.14
2019-05-22T08:03:46.336Z,153028.41
2019-05-22T08:06:15.843Z,153023.11
2019-05-22T08:08:45.522Z,153021.81
2019-05-22T08:11:14.592Z,153028.41
2019-05-22T08:13:44.436Z,153025.73
2019-05-22T08:16:13.897Z,152988.92
2019-05-22T08:18:43.001Z,153011.28
2019-05-22T08:21:12.119Z,152999.44
2019-05-22T08:23:42.186Z,152991.53
2019-05-22T08:26:12.569Z,152999.44
2019-05-22T08:28:41.828Z,152981.02
2019-05-22T08:31:12.259Z,152986.31
2019-05-22T08:33:40.958Z,152983.63
2019-05-22T08:36:09.702Z,153009.97
2019-05-22T08:38:39.045Z,153012.59
2019-05-22T08:41:09.270Z,153009.97
2019-05-22T08:44:03.373Z,153024.42
2019-05-22T08:46:11.119Z,152983.63
2019-05-22T08:48:48.009Z,152992.84
2019-05-22T08:51:13.665Z,152988.92
2019-05-22T08:53:48.396Z,152982.33
2019-05-22T08:56:14.629Z,152986.31
2019-05-22T08:58:45.060Z,152965.25
2019-05-22T09:01:15.130Z,152965.25
2019-05-22T09:03:44.127Z,152982.33
2019-05-22T09:06:12.833Z,152978.41
2019-05-22T09:08:44.310Z,152986.31
2019-05-22T09:11:13.206Z,152978.41
2019-05-22T09:13:41.955Z,152975.78
2019-05-22T09:16:12.470Z,152991.53
2019-05-22T09:18:41.103Z,153009.97
2019-05-22T09:21:10.321Z,153011.28
2019-05-22T09:23:39.014Z,152996.83
2019-05-22T09:26:08.523Z,153031.02
2019-05-22T09:28:37.930Z,153042.84
2019-05-22T09:31:06.431Z,153062.59
2019-05-22T09:33:37.684Z,153074.44
2019-05-22T09:36:06.995Z,153081.03
2019-05-22T09:38:35.966Z,153078.36
2019-05-22T09:41:04.966Z,153078.36
2019-05-22T09:43:33.618Z,153058.66
2019-05-22T09:46:03.455Z,153066.53
2019-05-22T09:48:33.902Z,153069.19
2019-05-22T09:51:02.744Z,153083.64
2019-05-22T09:53:32.111Z,153112.61
2019-05-22T09:56:00.971Z,153119.16
2019-05-22T09:58:30.246Z,153116.53
2019-05-22T10:00:59.478Z,153137.59
2019-05-22T10:03:28.168Z,153138.91
2019-05-22T10:05:56.886Z,153138.91
2019-05-22T10:08:25.540Z,153169.19
2019-05-22T10:10:54.676Z,153167.88
2019-05-22T10:13:23.836Z,153158.66
2019-05-22T10:15:52.797Z,153157.34
2019-05-22T10:18:21.509Z,153161.28
2019-05-22T10:20:55.130Z,153144.19
2019-05-22T10:23:23.804Z,153136.28
2019-05-22T10:25:52.500Z,153156.03
2019-05-22T10:28:21.815Z,153162.63
2019-05-22T10:30:51.419Z,153177.09
2019-05-22T10:33:20.328Z,153152.11
2019-05-22T10:35:49.967Z,153157.34
2019-05-22T10:38:18.460Z,153133.66
2019-05-22T10:40:47.859Z,153138.91
2019-05-22T10:43:16.766Z,153154.72
2019-05-22T10:45:46.432Z,153158.66
2019-05-22T10:48:14.946Z,153153.41
2019-05-22T10:50:43.590Z,153145.50
2019-05-22T10:53:12.859Z,153123.14
2019-05-22T10:55:41.990Z,153153.41
2019-05-22T10:58:10.844Z,153156.03
2019-05-22T11:00:39.778Z,153138.91
2019-05-22T11:03:08.873Z,153138.91
2019-05-22T11:05:37.419Z,153094.17
2019-05-22T11:08:06.659Z,153094.17
2019-05-22T11:10:35.597Z,153096.80
2019-05-22T11:13:05.100Z,153109.98
2019-05-22T11:15:33.831Z,153115.22
2019-05-22T11:18:03.407Z,153115.22
2019-05-22T11:20:33.279Z,153102.08
2019-05-22T11:23:02.420Z,153104.70
2019-05-22T11:25:31.478Z,153127.06
2019-05-22T11:28:00.014Z,153136.28
2019-05-22T11:30:29.572Z,153152.11
2019-05-22T11:32:59.166Z,153179.72
2019-05-22T11:35:29.145Z,153182.37
2019-05-22T11:37:58.026Z,153175.78
2019-05-22T11:40:26.998Z,153104.70
2019-05-22T11:42:55.833Z,153108.63
2019-05-22T11:45:25.112Z,153115.22
2019-05-22T11:47:54.654Z,153109.98
2019-05-22T11:50:25.581Z,153092.88
2019-05-22T11:52:54.679Z,153094.17
2019-05-22T11:55:40.768Z,153099.47
2019-05-22T11:57:54.406Z,153092.88
2019-05-22T12:00:23.631Z,153057.31
2019-05-22T12:02:52.593Z,153046.78
2019-05-22T12:05:23.001Z,153041.55
2019-05-22T12:07:52.716Z,153023.11
2019-05-22T12:10:22.725Z,153036.25
2019-05-22T12:12:53.599Z,153038.92
2019-05-22T12:15:26.627Z,153048.14
2019-05-22T12:17:55.762Z,153052.06
2019-05-22T12:20:26.333Z,153028.41
2019-05-22T12:22:55.689Z,153025.73
2019-05-22T12:25:25.824Z,153024.42
2019-05-22T12:27:56.802Z,153049.45
2019-05-22T12:30:26.979Z,153066.53
2019-05-22T12:32:56.928Z,153065.22
2019-05-22T12:35:26.664Z,153070.50
2019-05-22T12:37:55.927Z,153070.50
2019-05-22T12:40:25.130Z,153049.45
2019-05-22T12:42:53.762Z,153075.73
2019-05-22T12:45:28.902Z,153094.17
2019-05-22T12:47:57.792Z,153084.95
2019-05-22T12:50:29.971Z,153069.19
2019-05-22T12:53:01.303Z,153065.22
2019-05-22T12:55:30.677Z,153065.22
2019-05-22T12:58:00.611Z,153053.37
2019-05-22T13:00:31.451Z,153069.19
2019-05-22T13:03:02.135Z,153069.19
2019-05-22T13:05:31.413Z,153078.36
2019-05-22T13:08:00.152Z,153077.05
2019-05-22T13:10:29.389Z,153058.66
2019-05-22T13:12:59.500Z,153065.22
2019-05-22T13:15:28.368Z,153048.14
2019-05-22T13:17:59.491Z,153070.50
2019-05-22T13:20:42.039Z,153073.13
2019-05-22T13:23:03.788Z,153059.97
2019-05-22T13:25:35.996Z,153078.36
2019-05-22T13:28:07.869Z,153066.53
2019-05-22T13:30:39.391Z,153083.64
2019-05-22T13:33:11.513Z,153052.06
2019-05-22T13:35:41.825Z,153044.16
2019-05-22T13:38:12.905Z,153017.88
2019-05-22T13:40:42.682Z,153031.02
2019-05-22T13:43:11.782Z,153024.42
2019-05-22T13:45:40.475Z,153024.42
2019-05-22T13:48:09.475Z,153048.14
2019-05-22T13:50:38.451Z,153031.02
2019-05-22T13:53:08.772Z,153020.50
2019-05-22T13:55:37.319Z,153009.97
2019-05-22T13:58:07.259Z,152999.44
2019-05-22T14:00:37.541Z,153012.59
2019-05-22T14:03:06.696Z,152994.16
2019-05-22T14:05:36.495Z,153011.28
2019-05-22T14:08:06.289Z,153008.66
2019-05-22T14:10:35.273Z,152998.14
2019-05-22T14:13:04.472Z,152991.53
2019-05-22T14:15:50.026Z,152983.63
2019-05-22T14:18:04.084Z,153008.66
2019-05-22T14:20:32.654Z,152981.02
2019-05-22T14:23:01.341Z,152958.66
2019-05-22T14:25:30.840Z,152956.03
2019-05-22T14:27:59.688Z,152981.02
2019-05-22T14:30:28.771Z,152967.88
2019-05-22T14:33:04.187Z,152975.78
2019-05-22T14:35:46.886Z,152967.88
2019-05-22T14:38:07.827Z,152969.19
2019-05-22T14:40:37.986Z,152970.50
2019-05-22T14:43:10.792Z,152973.11
2019-05-22T14:45:39.442Z,152983.63
2019-05-22T14:48:09.289Z,153045.47
2019-05-22T14:50:38.325Z,153023.11
2019-05-22T14:53:07.476Z,153006.05
2019-05-22T14:55:37.206Z,153017.88
2019-05-22T14:58:07.028Z,153004.69
2019-05-22T15:00:36.829Z,153013.91
2019-05-22T15:03:07.959Z,153020.50
2019-05-22T15:05:38.266Z,153015.20
2019-05-22T15:08:07.411Z,153020.50
2019-05-22T15:10:37.315Z,153033.64
2019-05-22T15:13:06.199Z,153038.92
2019-05-22T15:15:40.084Z,153021.81
2019-05-22T15:18:06.398Z,153036.25
2019-05-22T15:20:41.690Z,153052.06
2019-05-22T15:23:15.746Z,153033.64
2019-05-22T15:25:44.412Z,153041.55
2019-05-22T15:28:17.357Z,153028.41
2019-05-22T15:30:49.110Z,153025.73
2019-05-22T15:33:17.718Z,153017.88
2019-05-22T15:35:48.810Z,153023.11
2019-05-22T15:38:18.091Z,153017.88
2019-05-22T15:40:49.509Z,153009.97
2019-05-22T15:43:18.405Z,152999.44
2019-05-22T15:45:49.675Z,153007.34
2019-05-22T15:48:20.610Z,153017.88
2019-05-22T15:50:51.301Z,153023.11
2019-05-22T15:53:30.300Z,153025.73
2019-05-22T15:56:00.569Z,153023.11
2019-05-22T15:58:31.456Z,153031.02
2019-05-22T16:01:04.278Z,153023.11
2019-05-22T16:03:33.210Z,153027.09
2019-05-22T16:06:02.946Z,153029.72
2019-05-22T16:08:32.215Z,153015.20
2019-05-22T16:11:02.141Z,153025.73
2019-05-22T16:13:34.095Z,153015.20
2019-05-22T16:16:06.433Z,153023.11
2019-05-22T16:18:36.221Z,153028.41
2019-05-22T16:21:06.890Z,153024.42
2019-05-22T16:23:37.546Z,153029.72
2019-05-22T16:26:09.984Z,153036.25
2019-05-22T16:28:40.970Z,153038.92
2019-05-22T16:31:12.564Z,153036.25
2019-05-22T16:33:43.897Z,153038.92
2019-05-22T16:36:14.217Z,153042.84
2019-05-22T16:38:44.414Z,153036.25
2019-05-22T16:41:13.586Z,153038.92
2019-05-22T16:43:49.767Z,153032.33
2019-05-22T16:46:16.939Z,153028.41
2019-05-22T16:48:48.334Z,153031.02
2019-05-22T16:51:18.516Z,153044.16
2019-05-22T16:53:55.857Z,153041.55
2019-05-22T16:56:26.457Z,153057.31
2019-05-22T16:58:56.124Z,153056.00
2019-05-22T17:01:26.198Z,153058.66
2019-05-22T17:03:58.469Z,153058.66
2019-05-22T17:06:30.848Z,153061.28
2019-05-22T17:09:01.551Z,153063.91
2019-05-22T17:11:31.615Z,153062.59
2019-05-22T17:14:03.489Z,153079.72
2019-05-22T17:16:34.270Z,153075.73
2019-05-22T17:19:17.568Z,153070.50
2019-05-22T17:21:35.654Z,153070.50
2019-05-22T17:24:05.763Z,153074.44
2019-05-22T17:26:35.290Z,153069.19
2019-05-22T17:29:04.491Z,153075.73
2019-05-22T17:31:33.434Z,153083.64
2019-05-22T17:34:02.955Z,153070.50
2019-05-22T17:36:32.003Z,153077.05
2019-05-22T17:39:02.047Z,153082.34
2019-05-22T17:41:32.601Z,153073.13
2019-05-22T17:44:04.242Z,153063.91
2019-05-22T17:46:34.482Z,153078.36
2019-05-22T17:49:03.641Z,153079.72
2019-05-22T17:51:32.226Z,153086.27
2019-05-22T17:54:01.411Z,153074.44
2019-05-22T17:56:30.519Z,153073.13
2019-05-22T17:58:59.482Z,153082.34
2019-05-22T18:01:28.819Z,153083.64
2019-05-22T18:03:57.457Z,153082.34
2019-05-22T18:06:26.340Z,153077.05
2019-05-22T18:08:55.419Z,153079.72
2019-05-22T18:11:24.344Z,153084.95
2019-05-22T18:14:02.331Z,153086.27
2019-05-22T18:16:31.700Z,153071.81
2019-05-22T18:19:00.250Z,153078.36
2019-05-22T18:21:28.726Z,153078.36
2019-05-22T18:23:57.299Z,153075.73
2019-05-22T18:26:26.037Z,153086.27
2019-05-22T18:28:54.750Z,153081.03
2019-05-22T18:31:23.635Z,153079.72
2019-05-22T18:33:52.144Z,153084.95
2019-05-22T18:36:20.623Z,153086.27
2019-05-22T18:38:49.233Z,153090.25
2019-05-22T18:41:17.832Z,153083.64
2019-05-22T18:43:46.581Z,153094.17
2019-05-22T18:46:15.335Z,153088.94
2019-05-22T18:48:44.106Z,153082.34
2019-05-22T18:51:13.335Z,153086.27
2019-05-22T18:53:42.378Z,153095.48
2019-05-22T18:56:11.653Z,153086.27
2019-05-22T18:58:40.965Z,153083.64
2019-05-22T19:01:09.688Z,153081.03
2019-05-22T19:03:38.949Z,153081.03
2019-05-22T19:06:07.636Z,153082.34
2019-05-22T19:08:36.430Z,153079.72
2019-05-22T19:11:05.274Z,153079.72
2019-05-22T19:13:33.881Z,153067.83
2019-05-22T19:16:02.456Z,153075.73
2019-05-22T19:18:50.190Z,153067.83
2019-05-22T19:21:18.700Z,153067.83
2019-05-22T19:23:47.280Z,153073.13
2019-05-22T19:26:15.942Z,153063.91
2019-05-22T19:28:44.836Z,153066.53
2019-05-22T19:31:13.891Z,153067.83
2019-05-22T19:33:42.530Z,153061.28
2019-05-22T19:36:11.188Z,153062.59
2019-05-22T19:38:40.019Z,153061.28
2019-05-22T19:41:08.781Z,153046.78
2019-05-22T19:43:37.838Z,153070.50
2019-05-22T19:46:06.990Z,153063.91
2019-05-22T19:48:35.639Z,153038.92
2019-05-22T19:51:04.977Z,153041.55
2019-05-22T19:53:33.607Z,153038.92
2019-05-22T19:56:02.460Z,153033.64
2019-05-22T19:58:32.003Z,153036.25
2019-05-22T20:01:00.550Z,153029.72
2019-05-22T20:03:34.761Z,153023.11
2019-05-22T20:06:03.527Z,153033.64
2019-05-22T20:08:36.173Z,153038.92
2019-05-22T20:11:03.830Z,153028.41
2019-05-22T20:13:32.654Z,153017.88
2019-05-22T20:16:01.203Z,153009.97
2019-05-22T20:21:04.603Z,153012.59
2019-05-22T20:23:36.407Z,153002.06
2019-05-22T20:26:03.932Z,152994.16
2019-05-22T20:28:33.035Z,152990.23
2019-05-22T20:31:01.534Z,153009.97
2019-05-22T20:33:30.017Z,152994.16
2019-05-22T20:35:58.799Z,152977.09
2019-05-22T20:38:27.761Z,152978.41
2019-05-22T20:40:56.361Z,152982.33
2019-05-22T20:43:25.641Z,153023.11
2019-05-22T20:45:55.708Z,153007.34
2019-05-22T20:48:27.192Z,152975.78
2019-05-22T20:50:59.836Z,152978.41
2019-05-22T20:53:30.322Z,152981.02
2019-05-22T20:55:59.946Z,152988.92
2019-05-22T20:58:30.663Z,152979.70
2019-05-22T21:01:00.735Z,152967.88
2019-05-22T21:03:31.822Z,152965.25
2019-05-22T21:06:03.713Z,152959.97
2019-05-22T21:08:32.401Z,152962.59
2019-05-22T21:11:01.561Z,152959.97
2019-05-22T21:13:31.693Z,152962.59
2019-05-22T21:16:01.348Z,152953.33
2019-05-22T21:18:31.984Z,152936.25
2019-05-22T21:21:00.946Z,152941.50
2019-05-22T21:23:29.892Z,152944.16
2019-05-22T21:25:58.590Z,152933.64
2019-05-22T21:28:28.058Z,152932.28
2019-05-22T21:30:57.709Z,152911.23
2019-05-22T21:33:26.907Z,152929.66
2019-05-22T21:35:55.402Z,152927.05
2019-05-22T21:38:24.841Z,152917.83
2019-05-22T21:40:55.487Z,152923.13
2019-05-22T21:43:24.529Z,152912.59
2019-05-22T21:45:53.301Z,152911.23
2019-05-22T21:48:22.720Z,152916.53
2019-05-22T21:50:51.706Z,152909.92
2019-05-22T21:53:20.896Z,152916.53
2019-05-22T21:56:03.610Z,152912.59
2019-05-22T21:58:20.599Z,152917.83
2019-05-22T22:00:57.252Z,152909.92
2019-05-22T22:03:47.785Z,152899.41
2019-05-22T22:06:17.012Z,152904.69
2019-05-22T22:08:47.927Z,152912.59
2019-05-22T22:11:18.519Z,152896.78
2019-05-22T22:13:47.929Z,152912.59
2019-05-22T22:16:17.667Z,152916.53
2019-05-22T22:18:46.707Z,152890.19
2019-05-22T22:21:15.909Z,152900.72
2019-05-22T22:23:45.491Z,152907.31
2019-05-22T22:26:25.547Z,152896.78
2019-05-22T22:28:45.093Z,152909.92
2019-05-22T22:31:16.053Z,152896.78
2019-05-22T22:33:47.606Z,152899.41
2019-05-22T22:36:16.832Z,152878.36
2019-05-22T22:38:46.622Z,152883.66
2019-05-22T22:41:15.661Z,152878.36
2019-05-22T22:43:48.489Z,152878.36
2019-05-22T22:46:39.769Z,152884.97
2019-05-22T22:49:11.626Z,152871.83
2019-05-22T22:51:40.766Z,152852.09
2019-05-22T22:54:09.961Z,152861.30
2019-05-22T22:56:39.268Z,152852.09
2019-05-22T22:59:08.243Z,152859.94
2019-05-22T23:01:41.693Z,152852.09
2019-05-22T23:04:12.289Z,152850.78
2019-05-22T23:06:41.446Z,152862.61
2019-05-22T23:09:11.718Z,152846.81
2019-05-22T23:11:43.168Z,152836.28
2019-05-22T23:14:12.837Z,152828.38
2019-05-22T23:16:42.017Z,152827.08
2019-05-22T23:19:15.228Z,152825.77
2019-05-22T23:21:44.218Z,152838.91
2019-05-22T23:24:13.256Z,152827.08
2019-05-22T23:26:41.850Z,152813.94
2019-05-22T23:29:11.737Z,152812.64
2019-05-22T23:31:40.366Z,152794.22
2019-05-22T23:34:10.099Z,152796.84
2019-05-22T23:36:39.231Z,152802.12
2019-05-22T23:39:13.017Z,152791.59
2019-05-22T23:41:42.333Z,152787.62
2019-05-22T23:44:12.464Z,152781.08
2019-05-22T23:46:43.106Z,152794.22
2019-05-22T23:49:12.853Z,152778.47
2019-05-22T23:51:42.292Z,152769.25
2019-05-22T23:54:10.961Z,152781.08
2019-05-22T23:56:40.087Z,152762.66
2019-05-22T23:59:10.612Z,152760.05
